Time;durP1;ratioP1;P1;durP2;ratioP2;P2;SDS_P1;SDS_P2;PMS_P1;PMS_P2;Temp;Humidity;BMP_temperature;BMP_pressure;BME280_temperature;BME280_humidity;BME280_pressure;Samples;Min_cycle;Max_cycle;Signal;HPM_P1;HPM_P2
2023/07/28 00:01:51;;;;;;;2.67;2.40;;;22.40;61.20;;;;;;5053265;28;20195;-65
2023/07/28 00:04:20;;;;;;;2.10;1.90;;;22.40;61.00;;;;;;5053376;28;20602;-65
2023/07/28 00:06:47;;;;;;;2.38;2.17;;;22.40;61.00;;;;;;5051885;28;20211;-65
2023/07/28 00:09:14;;;;;;;3.88;2.30;;;22.30;60.90;;;;;;5053612;28;20188;-66
2023/07/28 00:11:41;;;;;;;2.95;2.35;;;22.30;60.90;;;;;;5053133;28;20193;-66
2023/07/28 00:14:08;;;;;;;2.60;2.30;;;22.30;60.90;;;;;;5053248;28;20577;-65
2023/07/28 00:16:35;;;;;;;2.50;2.28;;;22.30;60.80;;;;;;5051742;28;20192;-66
2023/07/28 00:19:02;;;;;;;2.30;2.10;;;22.30;60.80;;;;;;5053021;28;20738;-66
2023/07/28 00:21:31;;;;;;;2.55;2.35;;;22.30;60.70;;;;;;5052800;28;20676;-66
2023/07/28 00:23:58;;;;;;;2.20;2.00;;;22.30;60.60;;;;;;5051657;28;20285;-66
2023/07/28 00:26:25;;;;;;;2.97;2.30;;;22.30;60.70;;;;;;5052955;28;20261;-66
2023/07/28 00:28:52;;;;;;;2.40;2.20;;;22.20;60.50;;;;;;5051484;28;20195;-66
2023/07/28 00:31:20;;;;;;;2.63;2.08;;;22.30;60.50;;;;;;5052998;28;20188;-65
2023/07/28 00:33:47;;;;;;;3.03;2.10;;;22.20;60.40;;;;;;5051612;28;20239;-65
2023/07/28 00:36:14;;;;;;;2.38;2.00;;;22.20;60.20;;;;;;5051751;28;20195;-66
2023/07/28 00:38:42;;;;;;;2.72;2.03;;;22.20;60.30;;;;;;5055242;28;20708;-66
2023/07/28 00:41:09;;;;;;;2.63;2.30;;;22.20;60.20;;;;;;5056927;28;20257;-65
2023/07/28 00:43:37;;;;;;;2.17;1.98;;;22.20;60.10;;;;;;5055647;28;20720;-66
2023/07/28 00:46:04;;;;;;;4.20;2.67;;;22.20;60.10;;;;;;5056658;28;20264;-66
2023/07/28 00:48:30;;;;;;;2.35;2.20;;;22.20;60.20;;;;;;5055698;28;20199;-66
2023/07/28 00:50:58;;;;;;;2.60;2.17;;;22.20;60.10;;;;;;5056686;28;20196;-66
2023/07/28 00:53:25;;;;;;;2.38;2.17;;;22.10;60.80;;;;;;5055500;28;20307;-65
2023/07/28 00:55:53;;;;;;;2.60;2.35;;;22.10;60.00;;;;;;5055380;28;20196;-66
2023/07/28 00:58:22;;;;;;;2.20;2.00;;;22.10;60.00;;;;;;5055509;28;20200;-65
2023/07/28 01:00:49;;;;;;;3.00;2.00;;;22.10;60.00;;;;;;5055309;28;20199;-65
2023/07/28 01:03:16;;;;;;;2.33;2.13;;;22.10;60.00;;;;;;5055658;28;20219;-65
2023/07/28 01:05:54;;;;;;;2.42;2.22;;;22.10;59.90;;;;;;5054340;22;20295;-81
2023/07/28 01:08:31;;;;;;;2.05;1.85;;;22.10;59.90;;;;;;5040457;28;20647;-81
2023/07/28 01:10:59;;;;;;;3.05;2.20;;;22.10;59.90;;;;;;5032462;28;20200;-81
2023/07/28 01:13:27;;;;;;;3.20;2.22;;;22.00;59.80;;;;;;5061550;28;20173;-81
2023/07/28 01:15:54;;;;;;;2.55;1.90;;;22.00;59.80;;;;;;5057100;28;20196;-81
2023/07/28 01:18:21;;;;;;;3.38;2.17;;;22.00;59.80;;;;;;5043298;28;20184;-81
2023/07/28 01:20:53;;;;;;;2.03;1.92;;;22.00;59.80;;;;;;5036678;28;20223;-81
2023/07/28 01:23:21;;;;;;;3.58;2.20;;;21.90;59.70;;;;;;5036381;28;20283;-81
2023/07/28 01:25:50;;;;;;;2.20;2.00;;;22.00;59.70;;;;;;5036220;28;20599;-81
2023/07/28 01:28:19;;;;;;;2.63;2.17;;;22.00;59.70;;;;;;5035990;28;20192;-81
2023/07/28 01:30:46;;;;;;;2.63;2.40;;;21.90;59.60;;;;;;5046235;28;20212;-81
2023/07/28 01:33:13;;;;;;;2.42;2.22;;;21.90;59.60;;;;;;5036582;28;20196;-81
2023/07/28 01:35:40;;;;;;;2.67;2.08;;;21.90;59.60;;;;;;5038675;28;20192;-81
2023/07/28 01:38:07;;;;;;;3.15;2.15;;;21.90;59.60;;;;;;5036464;28;20207;-81
2023/07/28 01:40:35;;;;;;;2.30;2.10;;;21.90;59.60;;;;;;5020546;28;20558;-81
2023/07/28 01:43:02;;;;;;;2.40;2.20;;;21.90;59.50;;;;;;5036051;28;20619;-81
2023/07/28 01:45:31;;;;;;;2.85;2.17;;;21.90;59.50;;;;;;5036072;28;20192;-80
2023/07/28 01:47:58;;;;;;;3.85;2.20;;;21.90;59.50;;;;;;5036247;28;20227;-80
2023/07/28 01:50:25;;;;;;;1.85;1.73;;;21.90;59.50;;;;;;5034998;28;20318;-80
2023/07/28 01:52:51;;;;;;;3.08;2.38;;;21.90;59.50;;;;;;5035720;28;20199;-80
2023/07/28 01:55:18;;;;;;;2.67;2.30;;;21.90;59.50;;;;;;5035671;28;20346;-80
2023/07/28 01:57:52;;;;;;;2.38;2.17;;;21.90;59.50;;;;;;5035394;28;20200;-80
2023/07/28 02:00:19;;;;;;;2.40;1.90;;;21.80;59.40;;;;;;5035410;28;20216;-80
2023/07/28 02:02:49;;;;;;;2.25;1.95;;;21.80;59.40;;;;;;5035606;28;20282;-80
2023/07/28 02:05:16;;;;;;;3.58;2.30;;;21.80;60.00;;;;;;5035278;28;20219;-80
2023/07/28 02:07:43;;;;;;;2.53;2.03;;;21.80;59.40;;;;;;5035287;28;20282;-80
2023/07/28 02:10:10;;;;;;;2.25;1.95;;;21.80;59.40;;;;;;5035795;28;20220;-81
2023/07/28 02:12:37;;;;;;;2.78;1.95;;;21.80;59.30;;;;;;5035608;28;20242;-81
2023/07/28 02:15:06;;;;;;;2.10;1.88;;;21.80;59.30;;;;;;5034902;28;20204;-81
2023/07/28 02:17:33;;;;;;;2.03;1.92;;;21.70;59.30;;;;;;5034922;28;20196;-81
2023/07/28 02:20:03;;;;;;;2.17;1.98;;;21.70;59.20;;;;;;5035504;28;20232;-81
2023/07/28 02:22:30;;;;;;;2.08;1.88;;;21.80;59.40;;;;;;5035550;28;20291;-81
2023/07/28 02:25:01;;;;;;;2.20;2.00;;;21.70;59.30;;;;;;5035285;28;20200;-81
2023/07/28 02:27:28;;;;;;;1.80;1.70;;;21.70;59.30;;;;;;5021168;28;20208;-81
2023/07/28 02:29:56;;;;;;;2.40;2.20;;;21.60;59.30;;;;;;5035007;28;20246;-81
2023/07/28 02:32:23;;;;;;;2.10;1.90;;;21.60;59.30;;;;;;5035055;28;20203;-81
2023/07/28 02:34:50;;;;;;;2.75;1.90;;;21.70;59.30;;;;;;5035803;28;20610;-81
2023/07/28 02:37:19;;;;;;;2.47;2.13;;;21.60;59.30;;;;;;5035697;28;20196;-81
2023/07/28 02:39:46;;;;;;;2.38;2.17;;;21.60;59.30;;;;;;5035620;28;20287;-81
2023/07/28 02:42:13;;;;;;;2.10;1.95;;;21.60;59.30;;;;;;5035616;28;20286;-81
2023/07/28 02:44:40;;;;;;;2.38;2.03;;;21.60;59.30;;;;;;5035757;28;20188;-81
2023/07/28 02:47:07;;;;;;;3.70;2.10;;;21.60;59.30;;;;;;5035014;28;20656;-81
2023/07/28 02:49:35;;;;;;;3.05;2.10;;;21.60;59.40;;;;;;5035557;28;20254;-80
2023/07/28 02:52:02;;;;;;;2.30;2.10;;;21.60;59.40;;;;;;5035431;28;20219;-80
2023/07/28 02:54:31;;;;;;;2.70;2.10;;;21.50;59.30;;;;;;5035644;28;20200;-80
2023/07/28 02:56:58;;;;;;;2.15;2.00;;;21.60;59.40;;;;;;5035605;28;20238;-80
2023/07/28 02:59:25;;;;;;;2.10;2.00;;;21.50;59.30;;;;;;5034730;28;20295;-80
2023/07/28 03:01:53;;;;;;;2.10;2.00;;;21.50;59.40;;;;;;5034946;28;20216;-80
2023/07/28 03:04:21;;;;;;;2.03;1.83;;;21.50;59.40;;;;;;5018057;28;20207;-80
2023/07/28 03:07:14;;;;;;;2.10;1.83;;;21.50;59.50;;;;;;5027055;28;20768;-80
2023/07/28 03:09:44;;;;;;;2.10;1.90;;;21.50;59.50;;;;;;5034464;28;20631;-80
2023/07/28 03:12:12;;;;;;;2.65;1.85;;;21.50;59.30;;;;;;5034325;28;20200;-80
2023/07/28 03:14:40;;;;;;;1.90;1.80;;;21.60;59.50;;;;;;5017774;28;20203;-81
2023/07/28 03:17:07;;;;;;;3.38;1.95;;;21.50;59.50;;;;;;5034017;28;20195;-81
2023/07/28 03:19:34;;;;;;;2.05;1.90;;;21.60;59.60;;;;;;5034677;28;20222;-81
2023/07/28 03:22:01;;;;;;;1.80;1.70;;;21.60;59.50;;;;;;5033970;28;20729;-81
2023/07/28 03:24:28;;;;;;;2.75;1.80;;;21.60;59.40;;;;;;5034361;28;20196;-81
2023/07/28 03:26:57;;;;;;;1.95;1.80;;;21.80;59.40;;;;;;5033804;28;20243;-80
2023/07/28 03:29:24;;;;;;;3.85;1.80;;;21.80;59.10;;;;;;5036082;28;20196;-80
2023/07/28 03:31:52;;;;;;;2.40;2.20;;;21.90;59.10;;;;;;5018012;28;20224;-80
2023/07/28 03:34:19;;;;;;;2.30;2.10;;;21.90;58.70;;;;;;5034653;28;20204;-80
2023/07/28 03:36:47;;;;;;;2.83;1.98;;;21.90;58.70;;;;;;5034511;28;20271;-80
2023/07/28 03:39:16;;;;;;;2.20;2.00;;;22.00;58.90;;;;;;5034694;28;20200;-80
2023/07/28 03:41:46;;;;;;;2.28;2.08;;;22.00;58.70;;;;;;5034797;28;20707;-80
2023/07/28 03:44:16;;;;;;;3.10;1.90;;;22.00;58.60;;;;;;5018413;28;20207;-80
2023/07/28 03:46:43;;;;;;;2.25;2.00;;;22.00;58.70;;;;;;5034705;28;20702;-80
2023/07/28 03:49:10;;;;;;;2.63;2.00;;;22.10;58.70;;;;;;5034603;28;20200;-80
2023/07/28 03:51:37;;;;;;;2.30;2.10;;;22.10;58.70;;;;;;5035613;28;20270;-80
2023/07/28 03:54:05;;;;;;;2.58;2.05;;;22.10;58.70;;;;;;5020420;28;20544;-80
2023/07/28 03:56:32;;;;;;;2.63;2.10;;;22.10;58.60;;;;;;5037139;28;20195;-80
2023/07/28 03:58:59;;;;;;;4.13;2.30;;;22.00;58.60;;;;;;5036305;28;20207;-80
2023/07/28 04:01:28;;;;;;;1.92;1.83;;;22.10;58.80;;;;;;5004012;28;20223;-80
2023/07/28 04:03:55;;;;;;;2.38;2.17;;;22.00;58.60;;;;;;5036071;28;20315;-80
2023/07/28 04:06:42;;;;;;;2.28;2.08;;;22.10;58.70;;;;;;5036439;28;20245;-80
2023/07/28 04:09:10;;;;;;;1.90;1.80;;;22.10;58.90;;;;;;5036337;28;20671;-80
2023/07/28 04:11:37;;;;;;;2.20;2.00;;;22.00;59.50;;;;;;5037309;28;20208;-80
2023/07/28 04:14:04;;;;;;;2.45;2.25;;;22.10;58.90;;;;;;5020221;28;20204;-80
2023/07/28 04:16:33;;;;;;;2.58;2.15;;;22.10;58.80;;;;;;5036740;28;20191;-80
2023/07/28 04:19:00;;;;;;;3.83;2.10;;;22.10;58.90;;;;;;5035820;28;20206;-80
2023/07/28 04:21:28;;;;;;;2.38;2.17;;;22.10;59.00;;;;;;5033316;28;20223;-80
2023/07/28 04:23:55;;;;;;;2.75;2.15;;;22.10;59.10;;;;;;5017357;28;20258;-80
2023/07/28 04:26:24;;;;;;;2.30;2.10;;;22.00;59.10;;;;;;5033405;28;20566;-80
2023/07/28 04:28:56;;;;;;;3.28;2.00;;;22.00;59.20;;;;;;5034359;28;20250;-80
2023/07/28 04:31:23;;;;;;;2.58;2.20;;;22.00;59.30;;;;;;5034111;28;20224;-80
2023/07/28 04:33:58;;;;;;;2.58;2.17;;;22.00;59.40;;;;;;5034059;28;20184;-80
2023/07/28 04:36:33;;;;;;;2.70;2.50;;;22.00;59.40;;;;;;5039280;28;20195;-80
2023/07/28 04:39:00;;;;;;;2.05;1.95;;;22.00;59.50;;;;;;5034712;28;20200;-80
2023/07/28 04:41:27;;;;;;;2.40;2.20;;;22.00;59.60;;;;;;5047476;28;20210;-80
2023/07/28 04:43:54;;;;;;;2.13;1.98;;;21.90;59.50;;;;;;5057826;28;20260;-80
2023/07/28 04:46:23;;;;;;;3.17;2.40;;;22.00;59.70;;;;;;5056619;28;20244;-80
2023/07/28 04:48:55;;;;;;;2.50;2.17;;;22.00;59.70;;;;;;5033470;28;20227;-80
2023/07/28 04:51:41;;;;;;;3.13;2.10;;;22.00;59.70;;;;;;5034678;28;20623;-80
2023/07/28 04:54:27;;;;;;;2.50;2.30;;;22.00;59.70;;;;;;5034707;28;20708;-80
2023/07/28 04:56:55;;;;;;;2.25;2.08;;;22.00;59.70;;;;;;5033844;28;20647;-81
2023/07/28 05:02:31;;;;;;;2.30;1.92;;;22.00;59.80;;;;;;5028043;28;20242;-80
2023/07/28 05:04:58;;;;;;;4.00;2.40;;;22.00;59.90;;;;;;5037079;28;20208;-81
2023/07/28 05:07:26;;;;;;;2.85;2.33;;;22.00;59.80;;;;;;5036122;28;20244;-81
2023/07/28 05:09:53;;;;;;;2.35;2.15;;;21.90;59.80;;;;;;5037108;28;20223;-82
2023/07/28 05:12:25;;;;;;;2.42;2.22;;;22.00;60.00;;;;;;5038148;28;20192;-80
2023/07/28 05:14:54;;;;;;;2.65;2.15;;;22.00;59.90;;;;;;5037572;28;20231;-81
2023/07/28 05:17:21;;;;;;;2.58;1.90;;;22.00;60.20;;;;;;5036918;28;20192;-80
2023/07/28 05:20:16;;;;;;;2.88;2.30;;;22.00;60.60;;;;;;5019714;28;20220;-80
2023/07/28 05:23:04;;;;;;;2.78;2.58;;;22.00;61.30;;;;;;5033238;28;20270;-81
2023/07/28 05:25:31;;;;;;;2.38;2.17;;;22.00;61.60;;;;;;5035581;28;20287;-81
2023/07/28 05:27:58;;;;;;;2.67;2.33;;;21.90;61.70;;;;;;5036199;28;20215;-81
2023/07/28 05:30:26;;;;;;;2.42;2.22;;;22.00;62.00;;;;;;5035996;28;20220;-80
2023/07/28 05:32:54;;;;;;;3.00;2.70;;;22.00;62.20;;;;;;5036257;28;20197;-81
2023/07/28 05:35:40;;;;;;;3.67;2.58;;;22.00;62.30;;;;;;5037658;28;20188;-81
2023/07/28 05:38:08;;;;;;;2.72;2.30;;;22.00;62.40;;;;;;5037147;28;20212;-81
2023/07/28 05:40:36;;;;;;;3.33;2.50;;;22.00;62.50;;;;;;5037761;28;20226;-81
2023/07/28 05:43:03;;;;;;;3.22;2.40;;;22.00;62.20;;;;;;5036950;28;20196;-81
2023/07/28 05:45:30;;;;;;;3.22;2.25;;;22.00;62.50;;;;;;5036501;28;20599;-81
2023/07/28 05:47:56;;;;;;;3.17;2.30;;;22.00;62.60;;;;;;5036679;28;20220;-82
2023/07/28 05:50:23;;;;;;;3.88;2.40;;;22.00;62.50;;;;;;5036485;28;20226;-81
2023/07/28 05:52:50;;;;;;;2.83;2.63;;;22.00;62.60;;;;;;5036329;28;20246;-81
2023/07/28 05:55:19;;;;;;;2.90;2.60;;;22.00;62.40;;;;;;5035544;28;20235;-81
2023/07/28 05:57:46;;;;;;;2.58;2.38;;;22.00;62.30;;;;;;5035627;28;20220;-81
2023/07/28 06:00:14;;;;;;;2.65;2.45;;;22.00;62.30;;;;;;5055296;22;20226;-79
2023/07/28 06:02:41;;;;;;;2.70;2.50;;;22.10;62.40;;;;;;5058751;28;20654;-79
2023/07/28 06:05:13;;;;;;;2.67;2.47;;;22.10;62.30;;;;;;5057748;28;20196;-79
2023/07/28 06:07:40;;;;;;;5.18;2.60;;;22.10;62.20;;;;;;5057439;28;20218;-80
2023/07/28 06:10:08;;;;;;;3.53;3.08;;;22.10;62.30;;;;;;5062873;28;20219;-80
2023/07/28 06:12:37;;;;;;;2.65;2.42;;;22.10;62.00;;;;;;5058822;28;20553;-79
2023/07/28 06:15:06;;;;;;;3.75;2.30;;;22.20;62.20;;;;;;5059165;28;20261;-79
2023/07/28 06:17:33;;;;;;;2.95;2.40;;;22.20;62.30;;;;;;5058477;28;20661;-79
2023/07/28 06:20:00;;;;;;;2.50;2.30;;;22.20;62.00;;;;;;5039334;28;20200;-78
2023/07/28 06:22:27;;;;;;;2.92;2.63;;;22.20;61.90;;;;;;5055249;28;20290;-78
2023/07/28 06:24:54;;;;;;;2.92;2.58;;;22.30;62.10;;;;;;5038361;28;20607;-78
2023/07/28 06:27:21;;;;;;;2.55;2.35;;;22.30;61.90;;;;;;5054765;28;20215;-78
2023/07/28 06:29:50;;;;;;;2.95;2.28;;;22.30;61.70;;;;;;5054398;28;20199;-78
2023/07/28 06:32:17;;;;;;;2.95;2.65;;;22.30;61.80;;;;;;5054457;28;20638;-79
2023/07/28 06:34:44;;;;;;;3.13;2.40;;;22.30;61.80;;;;;;5054394;28;20195;-79
2023/07/28 06:37:11;;;;;;;3.67;2.75;;;22.30;61.80;;;;;;5054437;28;20199;-79
2023/07/28 06:39:39;;;;;;;3.80;2.85;;;22.30;61.90;;;;;;5054249;28;20234;-79
2023/07/28 06:42:07;;;;;;;3.40;2.50;;;22.30;61.90;;;;;;5053999;28;20594;-79
2023/07/28 06:44:38;;;;;;;2.65;2.45;;;22.40;62.00;;;;;;5054067;28;20199;-79
2023/07/28 06:47:07;;;;;;;2.80;2.58;;;22.40;62.00;;;;;;5053690;28;20299;-79
2023/07/28 06:49:34;;;;;;;3.00;2.72;;;22.40;62.30;;;;;;5053787;28;20684;-79
2023/07/28 06:52:01;;;;;;;2.95;2.45;;;22.40;62.30;;;;;;5054042;28;20218;-79
2023/07/28 06:54:29;;;;;;;3.10;2.60;;;22.40;62.20;;;;;;5053811;28;20570;-79
2023/07/28 06:56:55;;;;;;;3.95;2.80;;;22.40;62.20;;;;;;5053690;28;20688;-79
2023/07/28 06:59:22;;;;;;;2.80;2.60;;;22.40;62.50;;;;;;5055105;28;20191;-79
2023/07/28 07:01:49;;;;;;;2.83;2.53;;;22.40;62.40;;;;;;5053685;28;20231;-78
2023/07/28 07:04:18;;;;;;;2.95;2.42;;;22.40;62.30;;;;;;5054016;28;20202;-78
2023/07/28 07:06:44;;;;;;;3.25;2.95;;;22.40;62.60;;;;;;5053751;28;20204;-78
2023/07/28 07:09:14;;;;;;;3.22;2.67;;;22.50;62.60;;;;;;5053600;28;20306;-78
2023/07/28 07:11:41;;;;;;;2.95;2.72;;;22.50;62.60;;;;;;5053365;28;20215;-78
2023/07/28 07:14:08;;;;;;;2.70;2.22;;;22.50;62.70;;;;;;5053410;28;20670;-79
2023/07/28 07:16:36;;;;;;;3.15;2.50;;;22.50;62.60;;;;;;5053314;28;20202;-78
2023/07/28 07:19:03;;;;;;;3.13;2.50;;;22.50;62.60;;;;;;5054836;28;20194;-79
2023/07/28 07:21:32;;;;;;;2.70;2.50;;;22.50;62.50;;;;;;5054652;28;20208;-79
2023/07/28 07:23:59;;;;;;;2.67;2.40;;;22.50;62.70;;;;;;5053504;28;20206;-77
2023/07/28 07:26:26;;;;;;;3.15;2.78;;;22.60;62.80;;;;;;5054508;28;20563;-77
2023/07/28 07:28:53;;;;;;;2.90;2.60;;;22.60;62.90;;;;;;5053873;28;20725;-77
2023/07/28 07:31:21;;;;;;;3.67;2.75;;;22.60;62.90;;;;;;5053450;28;20302;-77
2023/07/28 07:33:48;;;;;;;3.20;2.92;;;22.60;62.90;;;;;;5053409;28;20191;-77
2023/07/28 07:36:15;;;;;;;3.90;2.60;;;22.60;62.80;;;;;;5053350;28;20205;-77
2023/07/28 07:38:45;;;;;;;2.83;2.58;;;22.60;63.00;;;;;;5052917;28;20215;-78
2023/07/28 07:41:12;;;;;;;2.80;2.58;;;22.60;62.90;;;;;;5053318;28;20655;-79
2023/07/28 07:43:39;;;;;;;3.15;2.80;;;22.60;62.90;;;;;;5053689;28;20206;-78
2023/07/28 07:46:06;;;;;;;3.00;2.60;;;22.70;62.90;;;;;;5053182;28;20188;-78
2023/07/28 07:48:33;;;;;;;2.85;2.65;;;22.70;62.60;;;;;;5053364;28;20245;-78
2023/07/28 07:51:00;;;;;;;3.28;2.70;;;22.70;62.70;;;;;;5053037;28;20215;-78
2023/07/28 07:53:27;;;;;;;4.80;2.78;;;22.70;62.60;;;;;;5036590;28;20658;-78
2023/07/28 07:55:56;;;;;;;3.15;2.85;;;22.80;62.80;;;;;;5052910;28;20670;-78
2023/07/28 07:58:22;;;;;;;3.97;2.80;;;22.80;62.80;;;;;;5052879;28;20286;-78
2023/07/28 08:00:49;;;;;;;2.85;2.60;;;22.70;62.60;;;;;;5052974;28;20779;-78
2023/07/28 08:03:16;;;;;;;3.95;2.47;;;22.80;62.60;;;;;;5054826;28;20191;-78
2023/07/28 08:05:43;;;;;;;3.58;2.67;;;22.80;62.70;;;;;;5056320;28;20187;-78
2023/07/28 08:08:10;;;;;;;3.45;2.60;;;22.80;62.80;;;;;;5054944;28;20753;-78
2023/07/28 08:10:38;;;;;;;3.10;2.70;;;22.80;62.60;;;;;;5066305;28;20203;-78
2023/07/28 08:13:06;;;;;;;3.45;2.70;;;22.80;62.40;;;;;;5056433;28;20241;-78
2023/07/28 08:15:33;;;;;;;2.95;2.55;;;22.90;62.50;;;;;;5060040;28;20199;-78
2023/07/28 08:18:01;;;;;;;3.42;2.88;;;22.90;62.40;;;;;;5059237;28;20286;-78
2023/07/28 08:20:28;;;;;;;3.05;2.75;;;22.90;62.50;;;;;;5052971;28;20265;-78
2023/07/28 08:22:54;;;;;;;2.88;2.55;;;22.90;62.60;;;;;;5052411;28;20203;-78
2023/07/28 08:25:22;;;;;;;2.83;2.63;;;22.90;62.60;;;;;;5053584;28;20229;-78
2023/07/28 08:27:49;;;;;;;3.25;2.95;;;22.90;62.60;;;;;;5052401;28;20704;-78
2023/07/28 08:30:19;;;;;;;3.40;3.00;;;23.00;62.50;;;;;;5052367;28;20229;-78
2023/07/28 08:32:46;;;;;;;2.90;2.60;;;23.00;62.20;;;;;;5053004;28;20195;-78
2023/07/28 08:35:13;;;;;;;2.90;2.70;;;23.00;62.10;;;;;;5053838;28;20188;-78
2023/07/28 08:37:41;;;;;;;2.60;2.40;;;23.10;61.90;;;;;;5030695;28;20642;-78
2023/07/28 08:40:09;;;;;;;3.15;2.63;;;23.10;61.80;;;;;;5045208;28;20219;-78
2023/07/28 08:42:37;;;;;;;2.80;2.60;;;23.20;61.90;;;;;;5053542;28;20188;-79
2023/07/28 08:45:05;;;;;;;2.60;2.40;;;23.20;61.60;;;;;;5052252;28;20200;-79
2023/07/28 08:47:34;;;;;;;2.90;2.70;;;23.30;61.30;;;;;;5036240;28;20202;-78
2023/07/28 08:50:01;;;;;;;3.95;2.80;;;23.40;61.00;;;;;;5039225;28;20202;-80
2023/07/28 08:52:28;;;;;;;2.88;2.67;;;23.50;60.80;;;;;;5057736;28;20199;-79
2023/07/28 08:54:55;;;;;;;3.22;2.92;;;23.50;60.70;;;;;;5054158;28;20200;-79
2023/07/28 08:57:22;;;;;;;3.33;3.03;;;23.50;60.40;;;;;;5053503;28;20192;-78
2023/07/28 08:59:49;;;;;;;3.20;2.90;;;23.50;60.70;;;;;;5060111;28;20230;-79
2023/07/28 09:02:17;;;;;;;3.70;2.72;;;23.50;60.70;;;;;;5061428;28;20622;-79
2023/07/28 09:04:46;;;;;;;3.40;2.90;;;23.50;60.90;;;;;;5068123;28;20196;-79
2023/07/28 09:07:12;;;;;;;3.80;2.60;;;23.50;60.90;;;;;;5065707;28;20294;-79
2023/07/28 09:09:40;;;;;;;3.00;2.70;;;23.60;61.00;;;;;;5058576;28;20219;-79
2023/07/28 09:12:08;;;;;;;3.65;3.08;;;23.60;60.90;;;;;;5039819;28;20251;-77
2023/07/28 09:14:36;;;;;;;3.50;3.10;;;23.60;60.70;;;;;;5057352;28;20195;-77
2023/07/28 09:17:07;;;;;;;4.32;2.85;;;23.60;60.70;;;;;;5057583;28;20519;-78
2023/07/28 09:19:34;;;;;;;3.70;2.80;;;23.70;60.40;;;;;;5056328;28;20639;-78
2023/07/28 09:22:04;;;;;;;4.28;3.10;;;23.70;60.10;;;;;;5056745;28;20219;-78
2023/07/28 09:24:32;;;;;;;3.85;2.90;;;23.70;60.30;;;;;;5056873;28;20192;-78
2023/07/28 09:26:59;;;;;;;3.47;3.15;;;23.80;60.20;;;;;;5058036;28;20241;-79
2023/07/28 09:29:27;;;;;;;3.72;3.42;;;23.70;60.10;;;;;;5057488;28;20215;-79
2023/07/28 09:31:53;;;;;;;3.75;3.33;;;23.70;60.10;;;;;;5057255;28;20222;-78
2023/07/28 09:34:25;;;;;;;3.97;3.00;;;23.80;60.10;;;;;;5056832;28;20646;-78
2023/07/28 09:36:53;;;;;;;4.53;3.40;;;23.80;60.00;;;;;;5039098;28;20195;-77
2023/07/28 09:39:22;;;;;;;4.72;2.83;;;23.80;60.00;;;;;;5055514;28;20188;-77
2023/07/28 09:41:49;;;;;;;5.43;3.47;;;23.80;60.10;;;;;;5051039;28;20226;-76
2023/07/28 09:44:16;;;;;;;3.65;3.22;;;23.80;60.00;;;;;;5056625;28;20203;-79
2023/07/28 09:46:48;;;;;;;3.25;2.70;;;23.90;59.90;;;;;;5056302;28;20662;-78
2023/07/28 09:49:15;;;;;;;3.50;3.20;;;24.00;60.00;;;;;;5056013;28;20211;-79
2023/07/28 09:51:42;;;;;;;4.45;3.15;;;24.00;59.80;;;;;;5059892;28;20306;-79
2023/07/28 09:54:13;;;;;;;3.33;2.83;;;24.00;59.50;;;;;;5060700;28;20207;-79
2023/07/28 09:56:42;;;;;;;3.67;3.38;;;24.20;59.40;;;;;;5059227;28;20191;-79
2023/07/28 09:59:11;;;;;;;4.00;3.03;;;24.20;59.00;;;;;;5055950;28;20653;-79
2023/07/28 10:01:39;;;;;;;4.97;3.45;;;24.30;58.70;;;;;;5055468;28;20230;-79
2023/07/28 10:04:06;;;;;;;4.05;3.00;;;24.40;58.50;;;;;;5056031;28;20200;-79
2023/07/28 10:06:34;;;;;;;4.30;3.08;;;24.50;58.10;;;;;;5039245;28;20195;-79
2023/07/28 10:09:01;;;;;;;3.55;3.20;;;24.50;57.80;;;;;;5056157;28;20237;-79
2023/07/28 10:11:28;;;;;;;4.10;3.33;;;24.40;57.90;;;;;;5056898;28;20229;-80
2023/07/28 10:13:57;;;;;;;3.38;3.00;;;24.50;58.10;;;;;;5055504;28;20561;-78
2023/07/28 10:16:31;;;;;;;3.28;2.97;;;24.50;57.90;;;;;;5054800;28;20199;-80
2023/07/28 10:18:59;;;;;;;3.75;3.05;;;24.50;57.40;;;;;;5055668;28;20218;-77
2023/07/28 10:21:28;;;;;;;4.40;3.20;;;24.50;57.50;;;;;;5054439;28;20222;-76
2023/07/28 10:23:55;;;;;;;3.25;2.95;;;24.50;57.40;;;;;;5054309;28;20666;-77
2023/07/28 10:26:32;;;;;;;3.63;2.85;;;24.50;57.30;;;;;;5055567;28;20237;-78
2023/07/28 10:29:10;;;;;;;3.40;3.10;;;24.40;57.20;;;;;;5054221;28;20302;-77
2023/07/28 10:31:37;;;;;;;3.35;2.90;;;24.40;57.50;;;;;;5054296;28;20219;-78
2023/07/28 10:34:05;;;;;;;3.42;2.85;;;24.40;57.60;;;;;;5054100;28;20219;-76
2023/07/28 10:36:35;;;;;;;3.65;3.30;;;24.40;57.80;;;;;;5054715;28;20195;-77
2023/07/28 10:39:03;;;;;;;3.30;3.00;;;24.30;57.90;;;;;;5054006;28;20191;-78
2023/07/28 10:41:30;;;;;;;3.78;3.08;;;24.30;57.90;;;;;;5055318;28;20218;-79
2023/07/28 10:43:58;;;;;;;4.00;3.13;;;24.30;57.70;;;;;;5053985;28;20195;-80
2023/07/28 10:46:27;;;;;;;4.25;2.90;;;24.30;58.00;;;;;;5036823;28;20203;-77
2023/07/28 10:48:54;;;;;;;3.53;2.83;;;24.30;57.90;;;;;;5053833;28;20238;-77
2023/07/28 10:51:23;;;;;;;2.92;2.60;;;24.40;57.80;;;;;;5055024;28;20211;-77
2023/07/28 10:53:55;;;;;;;3.90;2.80;;;24.30;57.50;;;;;;5054615;28;20221;-78
2023/07/28 10:56:23;;;;;;;3.90;2.58;;;24.30;57.80;;;;;;5053995;28;20592;-75
2023/07/28 10:58:57;;;;;;;3.83;2.70;;;24.30;58.00;;;;;;5054202;28;20199;-75
2023/07/28 11:01:34;;;;;;;3.05;2.75;;;24.30;57.90;;;;;;5053434;28;20233;-75
2023/07/28 11:04:08;;;;;;;2.88;2.67;;;24.30;58.00;;;;;;5053844;28;20221;-75
2023/07/28 11:06:36;;;;;;;2.65;2.45;;;24.30;57.70;;;;;;5053884;28;20217;-75
2023/07/28 11:09:05;;;;;;;4.10;2.75;;;24.30;58.00;;;;;;5054683;28;20211;-76
2023/07/28 11:11:34;;;;;;;2.67;2.47;;;24.30;58.00;;;;;;5054642;28;20211;-75
2023/07/28 11:14:01;;;;;;;4.72;3.10;;;24.40;57.80;;;;;;5053451;28;20257;-75
2023/07/28 11:16:29;;;;;;;3.50;2.53;;;24.50;57.80;;;;;;5053317;28;20203;-75
2023/07/28 11:18:57;;;;;;;2.63;2.20;;;24.50;57.50;;;;;;5053972;28;20218;-75
2023/07/28 11:21:24;;;;;;;3.08;2.53;;;24.50;57.50;;;;;;5053153;28;20314;-75
2023/07/28 11:23:52;;;;;;;3.08;2.53;;;24.60;57.60;;;;;;5054233;28;20188;-74
2023/07/28 11:26:19;;;;;;;2.95;2.45;;;24.60;57.60;;;;;;5053622;28;20199;-74
2023/07/28 11:28:46;;;;;;;3.15;2.70;;;24.70;57.50;;;;;;5052891;28;20211;-76
2023/07/28 11:31:13;;;;;;;3.35;2.50;;;24.70;57.40;;;;;;5053047;28;20214;-75
2023/07/28 11:33:42;;;;;;;2.80;2.47;;;24.70;57.20;;;;;;5052865;28;20287;-75
2023/07/28 11:36:09;;;;;;;4.07;2.47;;;24.80;57.00;;;;;;5053706;28;20196;-76
2023/07/28 11:38:36;;;;;;;3.15;2.50;;;24.80;56.80;;;;;;5053760;28;20654;-76
2023/07/28 11:41:03;;;;;;;2.50;2.30;;;24.90;56.70;;;;;;5053380;28;20690;-78
2023/07/28 11:43:30;;;;;;;2.42;2.15;;;24.90;56.60;;;;;;5053452;28;20199;-78
2023/07/28 11:45:57;;;;;;;4.13;2.30;;;24.90;56.50;;;;;;5067149;28;20199;-78
2023/07/28 11:48:23;;;;;;;3.22;2.60;;;24.90;56.20;;;;;;5075453;28;20214;-78
2023/07/28 11:50:55;;;;;;;2.97;2.30;;;24.90;56.20;;;;;;5057154;28;20732;-78
2023/07/28 11:53:24;;;;;;;3.60;2.50;;;24.90;56.10;;;;;;5053231;28;20187;-78
2023/07/28 11:55:51;;;;;;;2.58;2.30;;;24.90;56.10;;;;;;5053101;28;20219;-78
2023/07/28 11:58:20;;;;;;;5.15;2.58;;;25.00;56.20;;;;;;5052799;28;20204;-78
2023/07/28 12:00:47;;;;;;;2.63;2.30;;;24.90;56.00;;;;;;5052706;28;20227;-78
2023/07/28 12:03:14;;;;;;;3.70;2.47;;;24.90;56.10;;;;;;5052471;28;20199;-78
2023/07/28 12:05:43;;;;;;;2.88;2.35;;;24.90;56.00;;;;;;5037047;28;20200;-78
2023/07/28 12:08:11;;;;;;;2.58;2.38;;;24.90;56.10;;;;;;5052562;28;20820;-78
2023/07/28 12:10:50;;;;;;;2.40;2.20;;;24.90;56.20;;;;;;5052588;28;20595;-78
2023/07/28 12:13:26;;;;;;;2.47;2.28;;;24.90;56.40;;;;;;5052757;28;20278;-80
2023/07/28 12:15:53;;;;;;;2.10;1.90;;;24.90;56.60;;;;;;5052685;28;20199;-76
2023/07/28 12:18:20;;;;;;;2.60;2.20;;;24.90;56.70;;;;;;5054264;28;20214;-76
2023/07/28 12:20:49;;;;;;;2.33;2.13;;;24.80;56.50;;;;;;5052531;28;20247;-76
2023/07/28 12:23:18;;;;;;;2.17;1.98;;;24.80;56.70;;;;;;5052959;28;20617;-76
2023/07/28 12:25:45;;;;;;;2.30;2.10;;;24.80;56.70;;;;;;5052760;28;20199;-76
2023/07/28 12:28:12;;;;;;;2.38;2.17;;;24.80;56.60;;;;;;5052980;28;20195;-75
2023/07/28 12:30:39;;;;;;;2.40;2.20;;;24.80;56.80;;;;;;5052248;28;20254;-75
2023/07/28 12:33:06;;;;;;;2.42;2.17;;;24.70;56.60;;;;;;5053509;28;20194;-74
2023/07/28 12:35:34;;;;;;;2.53;1.90;;;24.80;56.80;;;;;;5056273;28;20249;-76
2023/07/28 12:38:04;;;;;;;2.40;2.20;;;24.80;56.70;;;;;;5056151;28;20203;-76
2023/07/28 12:40:33;;;;;;;2.30;2.10;;;24.70;56.70;;;;;;5056487;28;20676;-75
2023/07/28 12:43:01;;;;;;;2.83;2.22;;;24.70;56.50;;;;;;5056029;28;20199;-76
2023/07/28 12:45:29;;;;;;;2.30;2.10;;;24.70;56.80;;;;;;5056311;28;20209;-76
2023/07/28 12:47:56;;;;;;;2.75;2.00;;;24.70;56.80;;;;;;5056036;28;20256;-76
2023/07/28 12:50:23;;;;;;;2.00;1.83;;;24.70;56.70;;;;;;5039255;28;20235;-75
2023/07/28 12:52:51;;;;;;;2.30;1.90;;;24.70;56.90;;;;;;5055931;28;20203;-75
2023/07/28 12:55:18;;;;;;;2.85;2.00;;;24.70;56.40;;;;;;5056280;28;20249;-75
2023/07/28 12:57:48;;;;;;;3.25;1.90;;;24.70;56.60;;;;;;5057227;28;20714;-75